Fort Lewis, WA

5:32 AM PDT on September 20, 2017 (GMT -0700)
Gray Army Air Field

Weather History for KGRF - January, 2014

Change the Weather History Date:

Thursday, January 9, 2014

  Actual Average Record
Temperature  
Mean Temperature 42 °F -  
Max Temperature 46 °F 44 °F 53 °F (2003)
Min Temperature 39 °F 33 °F 23 °F (1998)
Degree Days  
Heating Degree Days 22    
Moisture  
Dew Point 44 °F    
Average Humidity 96    
Maximum Humidity 100    
Minimum Humidity 85    
Precipitation  
Precipitation 0.29 in - - ()
Sea Level Pressure  
Sea Level Pressure 29.87 in    
Wind  
Wind Speed 12 mph (South)    
Max Wind Speed 20 mph    
Max Gust Speed 31 mph    
Visibility 8 miles    
Events Rain    
Averages and records for this station are not official NWS values.
T = Trace of Precipitation, MM = Missing Value Source: NWS Daily Summary

Daily Weather History Graph

Daily Weather History Graph

Search for Another Location

Airport or City:

Trip Planner

Search our weather history database for the weather conditions in past years. The results will help you decide how hot, cold, wet, or windy it might be!

Date:

Astronomy

Jan. 09, 2014 Rise Set
Actual Time 7:54 AM PST 4:40 PM PST
Civil Twilight 7:20 AM PST 5:15 PM PST
Nautical Twilight 6:41 AM PST 5:53 PM PST
Astronomical Twilight 6:05 AM PST 6:30 PM PST
Moon 12:19 PM PST (1/9) 1:58 AM PST (1/9)
Length of Visible Light 9h 55m
Length of Day
8h 45m
Waxing Gibbous, 67% of the Moon is Illuminated
Jan 9
Waxing Gibbous
Jan 15
Full
Jan 23
Last Quarter
Jan 30
New
Feb 6
First Quarter

Hourly Weather History & Observations

Time (PST) Temp. Windchill Dew Point Humidity Pressure Visibility Wind Dir Wind Speed Gust Speed Precip Events Conditions
12:58 AM 42.6 °F 36.3 °F 39.0 °F 87% 29.94 in 10.0 mi SSW 11.5 mph 19.6 mph N/A   Mostly Cloudy
1:58 AM 42.8 °F 36.2 °F 38.7 °F 85% 29.96 in 10.0 mi South 12.7 mph - N/A   Mostly Cloudy
2:58 AM 41.2 °F 34.5 °F 39.0 °F 92% 29.98 in 10.0 mi South 11.5 mph - N/A   Clear
3:58 AM 40.6 °F 34.3 °F 38.8 °F 93% 29.99 in 10.0 mi South 10.4 mph - N/A   Clear
4:58 AM 41.2 °F 35.0 °F 39.2 °F 93% 29.99 in 10.0 mi South 10.4 mph - N/A   Clear
5:58 AM 39.7 °F 33.7 °F 39.2 °F 98% 30.02 in 10.0 mi SSE 9.2 mph - N/A   Partly Cloudy
6:38 AM 39.2 °F 33.6 °F 39.2 °F 100% 30.00 in 10.0 mi SE 8.1 mph - N/A   Overcast
6:43 AM 39.2 °F 33.0 °F 39.2 °F 100% 30.00 in 10.0 mi SE 9.2 mph - N/A   Overcast
6:58 AM 39.7 °F 33.7 °F 39.6 °F 99% 30.02 in 10.0 mi SE 9.2 mph - N/A   Overcast
7:58 AM 40.1 °F 34.1 °F 39.9 °F 99% 30.02 in 10.0 mi SSE 9.2 mph - N/A   Scattered Clouds
8:03 AM 41.0 °F 35.2 °F 41.0 °F 100% 30.00 in 10.0 mi SSE 9.2 mph - N/A   Mostly Cloudy
8:23 AM 39.2 °F 34.2 °F 39.2 °F 100% 29.99 in 10.0 mi SSE 6.9 mph - N/A   Scattered Clouds
8:58 AM 40.3 °F 36.3 °F 39.9 °F 99% 30.02 in 10.0 mi SE 5.8 mph - N/A   Clear
9:58 AM 42.1 °F 37.7 °F 40.6 °F 95% 30.01 in 10.0 mi SSE 6.9 mph - N/A   Scattered Clouds
10:22 AM 42.8 °F 39.3 °F 41.0 °F 93% 30.00 in 10.0 mi SSE 5.8 mph - N/A   Light Drizzle
10:43 AM 42.8 °F 39.3 °F 41.0 °F 93% 29.99 in 10.0 mi SE 5.8 mph - N/A   Scattered Clouds
10:58 AM 43.0 °F 38.2 °F 41.7 °F 95% 30.00 in 10.0 mi SSE 8.1 mph - 0.00 in   Partly Cloudy
11:08 AM 42.8 °F 37.5 °F 41.0 °F 93% 29.99 in 10.0 mi South 9.2 mph - N/A Rain Light Rain
11:58 AM 43.5 °F 37.5 °F 42.3 °F 95% 29.96 in 10.0 mi SSE 11.5 mph - 0.02 in Rain Light Rain
12:03 PM 42.8 °F 36.2 °F 42.8 °F 100% 29.95 in 10.0 mi SSE 12.7 mph - N/A Rain Light Rain
12:08 PM 42.8 °F 36.2 °F 42.8 °F 100% 29.95 in 10.0 mi SSE 12.7 mph - N/A Rain Light Rain
12:58 PM 43.3 °F 37.2 °F 41.7 °F 94% 29.91 in 10.0 mi SSE 11.5 mph - 0.01 in Rain Light Rain
1:05 PM 42.8 °F 37.0 °F 42.8 °F 100% 29.89 in 10.0 mi SSE 10.4 mph - N/A   Overcast
1:20 PM 42.8 °F 36.6 °F 42.8 °F 100% 29.88 in 10.0 mi SSE 11.5 mph - N/A   Overcast
1:37 PM 42.8 °F 37.0 °F 42.8 °F 100% 29.87 in 10.0 mi SE 10.4 mph - N/A   Light Drizzle
1:58 PM 43.0 °F 38.8 °F 42.6 °F 99% 29.86 in 10.0 mi SE 6.9 mph - 0.02 in Rain Light Rain
2:09 PM 42.8 °F 37.5 °F 42.8 °F 100% 29.83 in 10.0 mi SSE 9.2 mph - N/A   Overcast
3:20 PM 42.8 °F 36.2 °F 42.8 °F 100% 29.79 in 10.0 mi SSE 12.7 mph - N/A   Overcast
3:30 PM 44.6 °F 38.4 °F 42.8 °F 93% 29.79 in 10.0 mi South 12.7 mph - N/A   Overcast
3:35 PM 44.6 °F 38.1 °F 42.8 °F 93% 29.78 in 10.0 mi South 13.8 mph - N/A   Overcast
3:58 PM 44.1 °F 37.4 °F 42.8 °F 95% 29.78 in 10.0 mi South 13.8 mph - 0.01 in   Overcast
4:41 PM 46.4 °F 39.5 °F 42.8 °F 87% 29.75 in 10.0 mi SSE 17.3 mph 25.3 mph N/A   Overcast
4:56 PM 46.4 °F 39.5 °F 42.8 °F 87% 29.75 in 10.0 mi South 17.3 mph 25.3 mph N/A Rain Light Rain
4:58 PM 45.9 °F 38.3 °F 43.3 °F 91% 29.77 in 10.0 mi South 19.6 mph 31.1 mph N/A Rain Light Rain
5:08 PM 46.4 °F 39.2 °F 44.6 °F 93% 29.76 in 10.0 mi South 18.4 mph 31.1 mph N/A Rain Light Rain
5:09 PM 46.4 °F 39.2 °F 44.6 °F 93% 29.76 in 10.0 mi South 18.4 mph 27.6 mph N/A   Overcast
5:15 PM 46.4 °F 39.8 °F 44.6 °F 93% 29.76 in 9.0 mi South 16.1 mph 27.6 mph N/A   Light Drizzle
5:30 PM 44.6 °F 37.2 °F 44.6 °F 100% 29.75 in 5.0 mi South 17.3 mph 26.5 mph N/A Rain Light Rain
5:40 PM 46.4 °F 40.1 °F 44.6 °F 93% 29.76 in 8.0 mi South 15.0 mph 26.5 mph N/A   Light Drizzle
5:43 PM 46.4 °F 40.4 °F 44.6 °F 93% 29.76 in 9.0 mi South 13.8 mph 26.5 mph N/A   Overcast
5:47 PM 46.4 °F 40.1 °F 44.6 °F 93% 29.76 in 10.0 mi SSE 15.0 mph 21.9 mph N/A   Light Drizzle
5:57 PM 46.4 °F 40.1 °F 44.6 °F 93% 29.76 in 9.0 mi South 15.0 mph 23.0 mph N/A Rain Light Rain
5:58 PM 45.5 °F 39.2 °F 45.3 °F 99% 29.78 in 9.0 mi South 13.8 mph 23.0 mph 0.01 in Rain Light Rain
6:03 PM 46.4 °F 40.4 °F 44.6 °F 93% 29.77 in 9.0 mi South 13.8 mph 23.0 mph N/A Rain Light Rain
6:29 PM 46.4 °F 40.7 °F 46.4 °F 100% 29.78 in 10.0 mi South 12.7 mph - N/A   Overcast
6:33 PM 46.4 °F 41.1 °F 46.4 °F 100% 29.78 in 10.0 mi South 11.5 mph - N/A Rain Light Rain
6:37 PM 46.4 °F 41.1 °F 46.4 °F 100% 29.78 in 9.0 mi South 11.5 mph - N/A Rain Light Rain
8:05 PM 46.4 °F 40.1 °F 46.4 °F 100% 29.81 in 4.0 mi SSW 15.0 mph - N/A Rain Light Rain
8:28 PM 46.4 °F 41.1 °F 46.4 °F 100% 29.82 in 4.0 mi South 11.5 mph 21.9 mph N/A   Overcast
8:31 PM 46.4 °F 41.1 °F 46.4 °F 100% 29.83 in 4.0 mi SSW 11.5 mph - N/A Rain Light Rain
8:36 PM 46.4 °F 41.5 °F 46.4 °F 100% 29.83 in 6.0 mi SSW 10.4 mph - N/A Rain Light Rain
8:49 PM 46.4 °F 41.1 °F 46.4 °F 100% 29.83 in 4.0 mi SSW 11.5 mph - N/A   Overcast
8:51 PM 46.4 °F 40.7 °F 46.4 °F 100% 29.83 in 4.0 mi South 12.7 mph - N/A Rain Light Rain
8:56 PM 46.4 °F 39.5 °F 46.4 °F 100% 29.82 in 5.0 mi South 17.3 mph 21.9 mph N/A   Overcast
8:57 PM 46.4 °F 39.8 °F 46.4 °F 100% 29.82 in 5.0 mi South 16.1 mph 21.9 mph N/A Rain Light Rain
8:58 PM 46.4 °F 40.1 °F 46.4 °F 100% 29.84 in 5.0 mi South 15.0 mph 21.9 mph 0.09 in Rain Light Rain
9:03 PM 46.4 °F 40.4 °F 46.4 °F 100% 29.83 in 7.0 mi South 13.8 mph 21.9 mph N/A Rain Light Rain
9:08 PM 46.4 °F 40.1 °F 46.4 °F 100% 29.83 in 9.0 mi South 15.0 mph - N/A   Light Drizzle
9:13 PM 46.4 °F 40.1 °F 46.4 °F 100% 29.84 in 7.0 mi South 15.0 mph - N/A Rain Light Rain
9:23 PM 46.4 °F 39.2 °F 46.4 °F 100% 29.84 in 5.0 mi SSW 18.4 mph 23.0 mph N/A Rain Light Rain
9:33 PM 46.4 °F 40.4 °F 46.4 °F 100% 29.85 in 7.0 mi SSW 13.8 mph 23.0 mph N/A Rain Light Rain
9:38 PM 46.4 °F 40.7 °F 46.4 °F 100% 29.86 in 8.0 mi South 12.7 mph - N/A   Light Drizzle
9:43 PM 46.4 °F 40.4 °F 46.4 °F 100% 29.86 in 7.0 mi South 13.8 mph - N/A Rain Light Rain
9:53 PM 46.4 °F 40.4 °F 44.6 °F 93% 29.86 in 9.0 mi South 13.8 mph - N/A Rain Light Rain
9:56 PM 46.4 °F 40.1 °F 44.6 °F 93% 29.87 in 6.0 mi South 15.0 mph - N/A   Overcast
9:58 PM 45.7 °F 39.5 °F 45.3 °F 99% 29.89 in 6.0 mi South 13.8 mph - 0.03 in   Overcast
9:59 PM 46.4 °F 40.1 °F 44.6 °F 93% 29.87 in 5.0 mi South 15.0 mph - N/A   Overcast
10:09 PM 46.4 °F 40.4 °F 44.6 °F 93% 29.86 in 7.0 mi South 13.8 mph - N/A   Overcast
10:10 PM 46.4 °F 40.1 °F 44.6 °F 93% 29.86 in 8.0 mi South 15.0 mph - N/A Rain Light Rain
10:15 PM 46.4 °F 40.1 °F 44.6 °F 93% 29.86 in 9.0 mi South 15.0 mph - N/A Rain Light Rain
10:25 PM 46.4 °F 40.4 °F 44.6 °F 93% 29.88 in 8.0 mi SSW 13.8 mph - N/A Rain Light Rain
10:40 PM 46.4 °F 41.1 °F 44.6 °F 93% 29.89 in 10.0 mi South 11.5 mph - N/A Rain Light Rain
10:45 PM 46.4 °F 41.1 °F 44.6 °F 93% 29.89 in 10.0 mi South 11.5 mph - N/A Rain Light Rain
10:50 PM 46.4 °F 41.1 °F 44.6 °F 93% 29.89 in 9.0 mi South 11.5 mph - N/A Rain Light Rain
10:55 PM 44.6 °F 39.2 °F 44.6 °F 100% 29.89 in 8.0 mi South 10.4 mph - N/A Rain Light Rain
10:58 PM 45.5 °F 39.9 °F 45.1 °F 99% 29.91 in 8.0 mi South 11.5 mph - 0.04 in Rain Light Rain
11:13 PM 44.6 °F 40.2 °F 44.6 °F 100% 29.90 in 5.0 mi SSW 8.1 mph - N/A Rain Rain
11:14 PM 44.6 °F 39.7 °F 44.6 °F 100% 29.90 in 5.0 mi SSW 9.2 mph - N/A Rain Rain
11:19 PM 44.6 °F 39.7 °F 44.6 °F 100% 29.91 in 5.0 mi SSW 9.2 mph - N/A Rain Light Rain
11:24 PM 44.6 °F 38.8 °F 44.6 °F 100% 29.91 in 7.0 mi South 11.5 mph - N/A Rain Light Rain
11:29 PM 44.6 °F 38.8 °F 44.6 °F 100% 29.91 in 9.0 mi South 11.5 mph - N/A Rain Light Rain
11:34 PM 46.4 °F 41.5 °F 44.6 °F 93% 29.92 in 10.0 mi South 10.4 mph - N/A Rain Light Rain
11:44 PM 46.4 °F 40.7 °F 44.6 °F 93% 29.92 in 10.0 mi South 12.7 mph 21.9 mph N/A Rain Light Rain
11:55 PM 45.5 °F 39.2 °F 45.1 °F 99% 29.93 in 10.0 mi South 13.8 mph 23.0 mph 0.06 in   Light Drizzle